Time;durP1;ratioP1;P1;durP2;ratioP2;P2;SDS_P1;SDS_P2;PMS_P1;PMS_P2;Temp;Humidity;BMP_temperature;BMP_pressure;BME280_temperature;BME280_humidity;BME280_pressure;Samples;Min_cycle;Max_cycle;Signal;HPM_P1;HPM_P2
2022/10/01 00:01:03;;;;;;;6.10;4.60;;;;;;;14.99;83.18;98714.02;104632;1274;75483;-21
2022/10/01 00:03:31;;;;;;;7.70;4.40;;;;;;;14.73;82.99;98715.86;104459;1274;63123;-21
2022/10/01 00:06:10;;;;;;;4.70;3.60;;;;;;;14.49;84.16;98713.56;104499;1277;62855;-21
2022/10/01 00:08:38;;;;;;;7.20;3.70;;;;;;;14.82;83.41;98716.49;104734;1274;75932;-21
2022/10/01 00:11:07;;;;;;;5.10;4.00;;;;;;;15.05;82.29;98724.39;104551;1274;74932;-21
2022/10/01 00:13:35;;;;;;;6.20;4.30;;;;;;;14.89;82.40;98726.63;104830;1271;74118;-21
2022/10/01 00:16:07;;;;;;;4.90;4.10;;;;;;;14.59;83.69;98725.45;104827;1271;62953;-21
2022/10/01 00:18:36;;;;;;;3.60;3.10;;;;;;;14.34;84.45;98728.44;104963;1274;62083;-21
2022/10/01 00:21:17;;;;;;;7.00;3.70;;;;;;;14.63;84.22;98730.70;104704;1271;76154;-21
2022/10/01 00:23:44;;;;;;;6.90;4.70;;;;;;;14.81;83.28;98731.09;104757;1271;76939;-21
2022/10/01 00:26:17;;;;;;;5.00;4.20;;;;;;;14.67;83.96;98729.92;105105;1271;75404;-21
2022/10/01 00:28:45;;;;;;;6.60;4.50;;;;;;;14.44;84.08;98727.85;104827;1271;62091;-21
2022/10/01 00:31:13;;;;;;;3.00;2.40;;;;;;;14.24;84.61;98726.20;104930;1274;63056;-21
2022/10/01 00:33:40;;;;;;;5.40;3.60;;;;;;;14.62;83.60;98729.92;104907;1271;73741;-21
2022/10/01 00:36:08;;;;;;;6.60;4.30;;;;;;;14.88;82.79;98730.37;105104;1271;76975;-21
2022/10/01 00:38:36;;;;;;;5.30;4.20;;;;;;;14.81;82.39;98728.27;104836;1271;75174;-21
2022/10/01 00:41:03;;;;;;;4.30;3.90;;;;;;;14.44;83.83;98728.44;104800;1271;62145;-21
2022/10/01 00:43:32;;;;;;;3.50;3.20;;;;;;;14.16;84.34;98728.09;104859;1271;62040;-21
2022/10/01 00:46:04;;;;;;;5.50;3.40;;;;;;;13.93;85.73;98727.61;104723;1271;76530;-21
2022/10/01 00:48:33;;;;;;;4.20;3.80;;;;;;;14.16;85.99;98729.29;104736;1271;76982;-21
2022/10/01 00:51:00;;;;;;;5.30;3.90;;;;;;;14.27;85.32;98731.93;104809;1271;75191;-21
2022/10/01 00:53:27;;;;;;;4.70;3.40;;;;;;;14.16;85.24;98726.35;105061;1271;62706;-21
2022/10/01 00:55:56;;;;;;;4.00;3.60;;;;;;;13.94;85.71;98729.24;104822;1271;63004;-21
2022/10/01 00:58:23;;;;;;;4.20;3.40;;;;;;;14.14;85.61;98733.19;104838;1271;75579;-21
2022/10/01 01:00:50;;;;;;;3.10;2.80;;;;;;;14.38;84.08;98733.91;104785;1271;77107;-21
2022/10/01 01:03:17;;;;;;;4.20;3.80;;;;;;;14.25;83.18;98726.85;105075;1271;74203;-21
2022/10/01 01:05:46;;;;;;;4.20;3.60;;;;;;;13.96;83.55;98725.56;105121;1271;62917;-21
2022/10/01 01:08:13;;;;;;;2.40;1.90;;;;;;;13.69;84.71;98725.66;105046;1271;62029;-21
2022/10/01 01:10:55;;;;;;;4.50;3.40;;;;;;;13.86;85.72;98726.09;104744;1271;76643;-21
2022/10/01 01:13:28;;;;;;;7.70;4.00;;;;;;;14.08;84.96;98729.63;104440;1271;77014;-21
2022/10/01 01:16:02;;;;;;;7.80;3.90;;;;;;;13.95;85.43;98732.45;105109;1271;75481;-21
2022/10/01 01:18:34;;;;;;;4.50;1.90;;;;;;;13.70;85.85;98727.29;104704;1271;62994;-21
2022/10/01 01:21:16;;;;;;;6.10;3.40;;;;;;;13.83;85.96;98730.84;104784;1271;62887;-21
2022/10/01 01:23:43;;;;;;;4.90;3.50;;;;;;;14.13;84.24;98727.18;104731;1271;75537;-21
2022/10/01 01:26:27;;;;;;;7.00;4.40;;;;;;;13.88;84.79;98730.21;104878;1271;77220;-21
2022/10/01 01:28:58;;;;;;;3.70;3.00;;;;;;;13.54;86.67;98730.23;105061;1271;74260;-21
2022/10/01 01:31:31;;;;;;;4.30;3.60;;;;;;;13.41;87.93;98728.92;104736;1274;63545;-21
2022/10/01 01:33:58;;;;;;;;;;;;;;;13.90;86.07;98725.52;104874;1271;60946;-21
2022/10/01 01:36:28;;;;;;;5.80;4.10;;;;;;;14.12;84.90;98725.12;105112;1271;75633;-21
2022/10/01 01:38:57;;;;;;;5.40;4.30;;;;;;;14.00;84.62;98726.93;104974;1271;76753;-21
2022/10/01 01:41:28;;;;;;;4.30;2.80;;;;;;;13.81;84.81;98732.30;104891;1274;75172;-21
2022/10/01 01:43:56;;;;;;;4.00;2.90;;;;;;;13.75;85.25;98728.47;105023;1271;63761;-21
2022/10/01 01:46:30;;;;;;;5.20;3.20;;;;;;;14.16;83.90;98725.79;104664;1271;61062;-21
2022/10/01 01:48:59;;;;;;;5.60;3.50;;;;;;;14.10;83.75;98731.30;104969;1271;76583;-21
2022/10/01 01:51:58;;;;;;;4.80;3.70;;;;;;;13.83;84.50;98739.65;104624;1271;77702;-21
2022/10/01 01:54:24;;;;;;;4.30;2.80;;;;;;;13.63;85.54;98737.59;104938;1271;74385;-21
2022/10/01 01:56:52;;;;;;;4.20;3.10;;;;;;;13.95;84.71;98739.43;104786;1271;61837;-21
2022/10/01 01:59:19;;;;;;;3.70;3.20;;;;;;;14.14;83.46;98739.98;105102;1271;61202;-21
2022/10/01 02:01:48;;;;;;;5.80;3.70;;;;;;;14.04;83.05;98740.30;104978;1271;76529;-21
2022/10/01 02:04:26;;;;;;;6.00;3.40;;;;;;;13.76;83.78;98748.52;105000;1271;75867;-21
2022/10/01 02:07:08;;;;;;;4.60;2.70;;;;;;;13.53;84.91;98756.45;104765;1274;73994;-22
2022/10/01 02:09:56;;;;;;;4.30;3.20;;;;;;;13.87;84.27;98756.42;104876;1271;62016;-21
2022/10/01 02:12:30;;;;;;;5.90;3.70;;;;;;;13.94;83.62;98757.84;104892;1271;63008;-21
2022/10/01 02:15:07;;;;;;;;;;;;;;;13.77;83.89;98753.98;104970;1271;74623;-21
2022/10/01 02:17:41;;;;;;;4.40;2.40;;;;;;;13.52;84.46;98752.08;105075;1271;75215;-21
2022/10/01 02:20:28;;;;;;;4.50;3.00;;;;;;;13.62;84.68;98759.78;104724;1271;75196;-21
2022/10/01 02:23:02;;;;;;;4.90;3.50;;;;;;;13.77;83.50;98758.34;104773;1271;62912;-21
2022/10/01 02:25:33;;;;;;;7.10;4.00;;;;;;;13.68;83.68;98755.70;104982;1274;62080;-22
2022/10/01 02:28:04;;;;;;;5.80;3.40;;;;;;;13.37;84.97;98761.85;104855;1271;77493;-21
2022/10/01 02:30:34;;;;;;;5.70;3.20;;;;;;;13.37;85.63;98754.40;104753;1271;77055;-21
2022/10/01 02:33:02;;;;;;;3.60;3.20;;;;;;;13.73;83.97;98753.19;105027;1271;75084;-21
2022/10/01 02:35:30;;;;;;;4.90;3.60;;;;;;;13.64;83.99;98761.76;104806;1271;61172;-21
2022/10/01 02:37:58;;;;;;;5.80;3.60;;;;;;;13.41;84.72;98755.77;104824;1271;62776;-21
2022/10/01 02:40:26;;;;;;;4.20;3.30;;;;;;;13.25;85.16;98754.83;104941;1271;76560;-21
2022/10/01 02:42:55;;;;;;;3.30;2.80;;;;;;;13.58;84.48;98752.88;104774;1274;76949;-21
2022/10/01 02:45:22;;;;;;;4.30;3.00;;;;;;;13.78;82.90;98751.19;104897;1271;75452;-21
2022/10/01 02:47:56;;;;;;;5.10;3.30;;;;;;;13.68;82.93;98752.78;105052;1271;62975;-21
2022/10/01 02:50:23;;;;;;;8.00;3.30;;;;;;;13.46;83.60;98756.96;105002;1274;63096;-22
2022/10/01 02:52:59;;;;;;;3.30;2.40;;;;;;;13.23;84.41;98755.02;105114;1271;76568;-21
2022/10/01 02:55:29;;;;;;;4.00;2.80;;;;;;;13.55;83.70;98755.63;104760;1271;76029;-20
2022/10/01 02:57:56;;;;;;;4.00;3.20;;;;;;;13.80;82.54;98752.61;104770;1274;75336;-22
2022/10/01 03:00:25;;;;;;;5.00;3.30;;;;;;;13.68;82.70;98747.54;104831;1271;63434;-24
2022/10/01 03:02:53;;;;;;;4.20;2.90;;;;;;;13.43;83.36;98750.82;104943;1271;61014;-21
2022/10/01 03:05:20;;;;;;;4.50;2.10;;;;;;;13.21;84.20;98744.38;104735;1271;76577;-23
2022/10/01 03:07:47;;;;;;;5.40;2.80;;;;;;;13.52;83.76;98738.99;104888;1271;77013;-34
2022/10/01 03:10:15;;;;;;;4.10;2.50;;;;;;;13.85;82.25;98740.31;104911;1271;74326;-23
2022/10/01 03:12:44;;;;;;;3.60;2.80;;;;;;;13.75;81.86;98740.05;104984;1271;61955;-21
2022/10/01 03:15:11;;;;;;;6.00;2.80;;;;;;;13.46;82.75;98745.45;104655;1274;61780;-21
2022/10/01 03:17:39;;;;;;;3.80;2.60;;;;;;;13.16;83.48;98747.33;104727;1271;74874;-21
2022/10/01 03:20:06;;;;;;;2.60;2.10;;;;;;;13.07;84.31;98751.33;104812;1271;77220;-21
2022/10/01 03:22:33;;;;;;;2.90;2.40;;;;;;;13.42;83.22;98756.04;104850;1271;73052;-21
2022/10/01 03:25:01;;;;;;;4.60;2.90;;;;;;;13.51;82.49;98751.96;104796;1271;62207;-22
2022/10/01 03:27:28;;;;;;;8.40;2.80;;;;;;;13.25;82.95;98761.59;104788;1271;62766;-22
2022/10/01 03:29:55;;;;;;;1.90;1.60;;;;;;;12.88;84.67;98771.45;104839;1271;76535;-23
2022/10/01 03:32:22;;;;;;;4.20;2.90;;;;;;;12.91;85.17;98770.39;104910;1271;76445;-23
2022/10/01 03:34:49;;;;;;;3.60;2.70;;;;;;;13.26;83.57;98767.85;104781;1274;75388;-23
2022/10/01 03:37:16;;;;;;;4.80;2.40;;;;;;;13.20;82.93;98765.72;104938;1271;61159;-22
2022/10/01 03:39:43;;;;;;;4.30;3.30;;;;;;;12.93;83.88;98769.16;105019;1271;61214;-21
2022/10/01 03:42:10;;;;;;;2.40;1.80;;;;;;;12.73;84.75;98768.46;104839;1271;76546;-21
2022/10/01 03:44:37;;;;;;;3.80;2.40;;;;;;;13.07;84.26;98766.10;104846;1270;76754;-21
2022/10/01 03:47:04;;;;;;;7.40;3.10;;;;;;;13.32;82.72;98762.67;104720;1271;75446;-21
2022/10/01 03:49:32;;;;;;;4.30;2.90;;;;;;;13.20;82.86;98761.26;104931;1271;63057;-21
2022/10/01 03:51:59;;;;;;;3.00;2.70;;;;;;;12.91;83.83;98770.31;105116;1271;62977;-21
2022/10/01 03:54:29;;;;;;;3.20;2.20;;;;;;;12.61;85.08;98777.64;105048;1271;76566;-21
2022/10/01 03:56:56;;;;;;;4.50;3.00;;;;;;;12.90;84.93;98769.00;104999;1271;77502;-21
2022/10/01 03:59:25;;;;;;;3.40;2.70;;;;;;;13.17;83.47;98766.08;105011;1274;75329;-21
2022/10/01 04:01:52;;;;;;;5.30;2.90;;;;;;;13.03;83.16;98763.73;104865;1271;61765;-21
2022/10/01 04:04:20;;;;;;;4.20;2.70;;;;;;;12.69;84.54;98764.11;104640;1274;61754;-21
2022/10/01 04:06:47;;;;;;;6.60;2.10;;;;;;;12.43;85.67;98767.61;104796;1271;75892;-21
2022/10/01 04:09:14;;;;;;;4.50;2.30;;;;;;;12.77;84.98;98768.76;104789;1271;75634;-21
2022/10/01 04:11:41;;;;;;;5.80;2.80;;;;;;;13.19;83.05;98772.34;104719;1271;74291;-21
2022/10/01 04:14:08;;;;;;;5.60;3.20;;;;;;;13.16;82.70;98771.55;104793;1270;61154;-21
2022/10/01 04:16:35;;;;;;;3.00;2.70;;;;;;;12.90;83.18;98768.09;104765;1271;63019;-21
2022/10/01 04:19:03;;;;;;;5.10;3.20;;;;;;;12.62;84.00;98762.73;104917;1271;75308;-21
2022/10/01 04:21:30;;;;;;;3.00;2.10;;;;;;;12.41;84.77;98758.05;104913;1271;75869;-21
2022/10/01 04:23:58;;;;;;;6.90;2.30;;;;;;;12.81;84.68;98758.73;104939;1271;75230;-21
2022/10/01 04:26:25;;;;;;;7.20;2.60;;;;;;;13.33;82.85;98759.59;104803;1272;63055;-21
2022/10/01 04:28:53;;;;;;;7.40;2.80;;;;;;;13.30;81.79;98761.27;104933;1271;62521;-21
2022/10/01 04:31:26;;;;;;;4.30;2.60;;;;;;;13.02;82.43;98764.00;104755;1271;76361;-21
2022/10/01 04:33:54;;;;;;;4.80;2.70;;;;;;;12.79;83.25;98762.21;105088;1271;76001;-21
2022/10/01 04:36:22;;;;;;;2.40;1.50;;;;;;;12.57;84.05;98759.36;104866;1274;75355;-21
2022/10/01 04:38:53;;;;;;;3.10;2.20;;;;;;;12.92;84.00;98762.97;104878;1271;61793;-21
2022/10/01 04:41:29;;;;;;;6.50;3.00;;;;;;;13.36;82.29;98765.81;104663;1274;63067;-21
2022/10/01 04:43:58;;;;;;;3.20;2.80;;;;;;;13.29;82.35;98773.10;104751;1271;75544;-21
2022/10/01 04:46:28;;;;;;;4.70;3.10;;;;;;;13.10;83.12;98772.16;105102;1271;76986;-21
2022/10/01 04:48:55;;;;;;;4.00;3.20;;;;;;;12.98;83.71;98766.86;104872;1271;75574;-21
2022/10/01 04:51:23;;;;;;;3.40;2.10;;;;;;;12.96;83.80;98766.86;104732;1271;63621;-21
2022/10/01 04:53:50;;;;;;;5.20;2.30;;;;;;;13.45;83.18;98766.88;104877;1271;61931;-21
2022/10/01 04:56:17;;;;;;;3.40;2.60;;;;;;;13.87;81.04;98769.08;104810;1271;76649;-21
2022/10/01 04:58:44;;;;;;;4.00;2.60;;;;;;;13.94;81.39;98758.69;104767;1271;76014;-21
2022/10/01 05:01:11;;;;;;;5.20;3.60;;;;;;;13.90;81.28;98760.70;105070;1271;74516;-21
2022/10/01 05:03:38;;;;;;;4.50;3.10;;;;;;;13.60;81.22;98757.38;105071;1271;61137;-22
2022/10/01 05:06:05;;;;;;;2.40;1.80;;;;;;;13.44;82.34;98751.59;105039;1271;62956;-21
2022/10/01 05:08:32;;;;;;;3.10;2.60;;;;;;;13.83;81.46;98750.43;105033;1271;75230;-22
2022/10/01 05:10:59;;;;;;;7.10;3.00;;;;;;;14.12;80.40;98748.38;104899;1271;75895;-22
2022/10/01 05:13:28;;;;;;;4.80;3.20;;;;;;;14.10;80.37;98756.34;105089;1271;72996;-21
2022/10/01 05:15:57;;;;;;;5.90;2.90;;;;;;;13.99;80.82;98754.27;105116;1271;63119;-21
2022/10/01 05:18:24;;;;;;;4.70;3.50;;;;;;;13.75;81.70;98759.94;104725;1271;61823;-22
2022/10/01 05:20:51;;;;;;;2.70;1.70;;;;;;;13.69;82.88;98762.80;104772;1271;76571;-21
2022/10/01 05:23:18;;;;;;;3.50;2.70;;;;;;;14.03;82.09;98766.95;104796;1271;76065;-22
2022/10/01 05:25:45;;;;;;;3.90;2.70;;;;;;;14.46;80.99;98766.98;104674;1274;75213;-22
2022/10/01 05:28:14;;;;;;;5.10;2.20;;;;;;;14.56;80.59;98770.38;104782;1271;62798;-22
2022/10/01 05:30:48;;;;;;;3.70;2.80;;;;;;;14.35;80.75;98773.70;104727;1271;62003;-22
2022/10/01 05:33:15;;;;;;;2.80;1.80;;;;;;;14.17;81.92;98785.98;104735;1272;75575;-21
2022/10/01 05:35:42;;;;;;;3.50;2.20;;;;;;;14.32;81.87;98786.40;104738;1274;75985;-22
2022/10/01 05:38:09;;;;;;;3.50;2.30;;;;;;;14.63;80.53;98784.70;104735;1271;74379;-22
2022/10/01 05:40:36;;;;;;;3.20;2.00;;;;;;;14.68;80.40;98777.85;104765;1271;63085;-22
2022/10/01 05:43:03;;;;;;;4.20;2.30;;;;;;;14.58;80.50;98784.42;104756;1271;61586;-22
2022/10/01 05:45:30;;;;;;;3.90;2.70;;;;;;;14.30;81.24;98784.13;104765;1271;76529;-23
2022/10/01 05:48:02;;;;;;;2.70;2.00;;;;;;;14.22;82.00;98789.29;104747;1271;76255;-22
2022/10/01 05:50:30;;;;;;;2.20;1.90;;;;;;;14.66;81.04;98793.22;104886;1271;75584;-22
2022/10/01 05:52:58;;;;;;;3.80;2.20;;;;;;;14.88;80.09;98794.16;105065;1271;63064;-22
2022/10/01 05:55:25;;;;;;;4.80;2.60;;;;;;;14.84;80.18;98794.08;104794;1271;62393;-22
2022/10/01 05:58:12;;;;;;;2.90;2.10;;;;;;;14.71;80.25;98792.07;104781;1271;76569;-23
2022/10/01 06:00:39;;;;;;;2.20;1.70;;;;;;;14.53;81.11;98793.18;104811;1271;77096;-23
2022/10/01 06:03:07;;;;;;;2.40;1.60;;;;;;;15.02;80.73;98795.92;104396;1277;75245;-22
2022/10/01 06:05:34;;;;;;;3.30;2.20;;;;;;;15.42;79.15;98790.34;104756;1271;62857;-22
2022/10/01 06:08:04;;;;;;;3.60;1.90;;;;;;;15.38;78.80;98797.42;104820;1271;61664;-22
2022/10/01 06:10:31;;;;;;;2.90;2.00;;;;;;;15.25;79.56;98796.61;104915;1271;76363;-22
2022/10/01 06:13:01;;;;;;;2.20;1.70;;;;;;;15.01;79.86;98793.67;105105;1271;76928;-22
2022/10/01 06:15:29;;;;;;;2.10;1.50;;;;;;;14.95;80.85;98790.28;104875;1272;74393;-22
2022/10/01 06:18:01;;;;;;;2.70;1.80;;;;;;;15.53;79.69;98794.40;104893;1271;61066;-22
2022/10/01 06:20:28;;;;;;;2.40;1.80;;;;;;;15.75;78.60;98806.08;104704;1272;61865;-22
2022/10/01 06:22:56;;;;;;;3.70;2.20;;;;;;;15.57;78.11;98806.58;104733;1270;76623;-23
2022/10/01 06:25:24;;;;;;;2.70;2.00;;;;;;;15.35;78.16;98806.65;104744;1271;75897;-23
2022/10/01 06:27:54;;;;;;;2.40;1.50;;;;;;;15.06;78.70;98809.45;104679;1271;75457;-23
2022/10/01 06:30:21;;;;;;;3.30;1.30;;;;;;;15.03;79.64;98812.39;104819;1271;64379;-22
2022/10/01 06:32:48;;;;;;;2.20;1.50;;;;;;;15.62;78.80;98808.48;104749;1271;62902;-22
2022/10/01 06:35:15;;;;;;;2.00;1.60;;;;;;;15.94;77.22;98803.90;104807;1271;75400;-23
2022/10/01 06:37:42;;;;;;;2.00;1.70;;;;;;;15.91;77.17;98804.79;104914;1271;76496;-23
2022/10/01 06:40:09;;;;;;;2.10;1.60;;;;;;;15.67;77.42;98801.04;104753;1271;74282;-22
2022/10/01 06:42:36;;;;;;;2.50;1.90;;;;;;;15.45;77.22;98800.86;104770;1271;61482;-22
2022/10/01 06:45:04;;;;;;;1.30;1.20;;;;;;;15.31;78.47;98801.92;104772;1272;61724;-22
2022/10/01 06:47:31;;;;;;;1.90;1.30;;;;;;;15.77;78.21;98799.06;104702;1271;74680;-22
2022/10/01 06:49:58;;;;;;;2.10;1.60;;;;;;;16.20;75.66;98796.42;104694;1271;76857;-23
2022/10/01 06:55:11;;;;;;;2.20;2.00;;;;;;;15.95;76.14;98788.61;105001;1271;63048;-23
2022/10/01 06:57:42;;;;;;;4.60;1.90;;;;;;;15.69;76.20;98794.63;104900;1271;62980;-22
2022/10/01 07:00:11;;;;;;;2.50;1.60;;;;;;;15.34;77.20;98794.65;104852;1272;76205;-23
2022/10/01 07:02:40;;;;;;;3.10;1.40;;;;;;;15.41;77.92;98797.61;104726;1271;76914;-24
2022/10/01 07:05:08;;;;;;;4.20;1.70;;;;;;;15.78;76.79;98804.19;105052;1271;75368;-26
2022/10/01 07:07:36;;;;;;;1.60;1.50;;;;;;;15.81;76.10;98807.44;104942;1271;61839;-24
2022/10/01 07:10:04;;;;;;;2.20;1.90;;;;;;;15.70;76.72;98799.48;104623;1274;63089;-26
2022/10/01 07:12:33;;;;;;;4.60;2.00;;;;;;;15.55;77.68;98802.60;104665;1271;76530;-27
2022/10/01 07:15:00;;;;;;;2.50;1.10;;;;;;;15.36;78.32;98800.56;104689;1271;76077;-25
2022/10/01 07:17:27;;;;;;;2.00;1.20;;;;;;;15.78;77.05;98800.39;104815;1271;75379;-26
2022/10/01 07:19:54;;;;;;;4.30;1.80;;;;;;;16.30;75.88;98799.83;104760;1271;61866;-25
2022/10/01 07:22:23;;;;;;;4.80;1.70;;;;;;;16.41;75.46;98803.58;104791;1271;62850;-26
2022/10/01 07:24:50;;;;;;;4.60;2.00;;;;;;;16.22;75.69;98793.27;104843;1271;74184;-24
2022/10/01 07:27:18;;;;;;;5.00;1.60;;;;;;;15.95;76.30;98787.19;104861;1271;75854;-25
2022/10/01 07:29:45;;;;;;;3.10;1.60;;;;;;;15.63;77.52;98791.13;104724;1271;74929;-24
2022/10/01 07:32:13;;;;;;;1.70;1.20;;;;;;;15.41;78.68;98794.01;104877;1271;63541;-24
2022/10/01 07:34:40;;;;;;;2.40;1.60;;;;;;;15.78;77.81;98801.04;104796;1271;63001;-24
2022/10/01 07:37:08;;;;;;;2.70;1.80;;;;;;;16.15;75.42;98796.65;104840;1271;76601;-24
2022/10/01 07:39:35;;;;;;;2.30;1.70;;;;;;;15.80;75.75;98803.83;104895;1274;76975;-24
2022/10/01 07:42:03;;;;;;;2.50;1.60;;;;;;;15.61;76.98;98801.27;104722;1272;73157;-24
2022/10/01 07:44:30;;;;;;;2.40;2.20;;;;;;;15.33;78.21;98802.81;104777;1271;62741;-24
2022/10/01 07:46:57;;;;;;;1.90;1.50;;;;;;;15.25;79.31;98803.95;104715;1272;61804;-28
2022/10/01 07:49:24;;;;;;;4.30;1.80;;;;;;;15.58;78.51;98805.05;104828;1271;75512;-23
2022/10/01 07:51:53;;;;;;;3.10;2.10;;;;;;;15.87;77.56;98809.59;104750;1274;75974;-24
2022/10/01 07:54:21;;;;;;;5.60;2.20;;;;;;;15.77;77.90;98813.70;104789;1271;75475;-24
2022/10/01 07:56:51;;;;;;;4.90;2.10;;;;;;;15.60;78.26;98813.44;104904;1274;62976;-26
2022/10/01 07:59:18;;;;;;;2.90;2.00;;;;;;;15.35;79.41;98820.48;104959;1271;61048;-26
2022/10/01 08:01:50;;;;;;;4.00;1.30;;;;;;;15.29;80.79;98824.91;104826;1271;76282;-25
2022/10/01 08:07:05;;;;;;;3.40;2.00;;;;;;;16.06;77.84;98820.20;104795;1271;75378;-25
2022/10/01 08:09:33;;;;;;;3.10;2.10;;;;;;;16.01;77.14;98823.17;104705;1271;63142;-27
2022/10/01 08:12:01;;;;;;;3.60;2.00;;;;;;;15.86;77.58;98822.40;104971;1271;63074;-26
2022/10/01 08:14:29;;;;;;;4.30;2.10;;;;;;;15.49;78.65;98819.36;104846;1272;76292;-27
2022/10/01 08:16:56;;;;;;;3.90;1.80;;;;;;;15.28;80.16;98816.77;104900;1272;76812;-27
2022/10/01 08:19:24;;;;;;;4.10;2.30;;;;;;;15.68;79.44;98817.33;105074;1271;75187;-26
2022/10/01 08:21:51;;;;;;;3.70;2.30;;;;;;;15.92;78.15;98814.70;104980;1274;63203;-26
2022/10/01 08:24:19;;;;;;;2.90;2.30;;;;;;;15.73;78.44;98815.04;104767;1271;61849;-25
2022/10/01 08:26:52;;;;;;;2.50;2.20;;;;;;;15.47;79.11;98818.70;104835;1271;75502;-25
2022/10/01 08:29:19;;;;;;;3.10;1.40;;;;;;;15.25;80.68;98816.63;104755;1271;76044;-28
2022/10/01 08:31:46;;;;;;;3.90;1.90;;;;;;;15.60;80.05;98817.43;104890;1271;74376;-28
2022/10/01 08:34:14;;;;;;;2.70;2.10;;;;;;;15.91;79.15;98820.54;104807;1272;61929;-27
2022/10/01 08:36:41;;;;;;;4.80;1.90;;;;;;;15.96;79.10;98822.30;104836;1271;62593;-27
2022/10/01 08:39:08;;;;;;;2.60;2.20;;;;;;;15.81;79.10;98825.98;104783;1274;76277;-26
2022/10/01 08:41:42;;;;;;;5.00;2.00;;;;;;;15.48;80.28;98825.33;104945;1271;76041;-28
2022/10/01 08:44:26;;;;;;;2.50;1.60;;;;;;;15.33;81.43;98824.30;103966;1271;1099883;-26
2022/10/01 08:46:59;;;;;;;3.00;1.60;;;;;;;15.76;80.08;98819.77;104706;1271;61966;-26
2022/10/01 08:49:34;;;;;;;3.80;2.10;;;;;;;16.00;79.35;98818.86;104644;1274;63102;-26
2022/10/01 08:52:05;;;;;;;3.10;1.80;;;;;;;15.83;79.39;98819.02;104787;1271;76625;-25
2022/10/01 08:54:41;;;;;;;2.10;1.80;;;;;;;15.67;79.73;98817.66;104814;1271;75912;-25
2022/10/01 08:57:11;;;;;;;4.00;1.50;;;;;;;15.49;79.99;98820.94;104603;1274;74187;-25
2022/10/01 08:59:47;;;;;;;6.90;1.40;;;;;;;15.87;79.73;98816.40;104692;1271;63098;-25
2022/10/01 09:02:19;;;;;;;2.20;1.70;;;;;;;16.17;78.61;98811.62;104698;1274;61949;-25
2022/10/01 09:04:48;;;;;;;2.10;1.80;;;;;;;15.94;79.40;98816.58;104735;1271;76294;-25
2022/10/01 09:07:40;;;;;;;2.60;2.00;;;;;;;15.77;79.48;98810.29;104727;1272;76939;-25
2022/10/01 09:10:35;;;;;;;4.20;1.80;;;;;;;15.49;80.76;98814.05;104767;1271;75379;-25
2022/10/01 09:13:34;;;;;;;3.00;1.50;;;;;;;15.27;82.22;98814.45;104749;1271;63644;-25
2022/10/01 09:16:08;;;;;;;1.90;1.60;;;;;;;15.89;80.00;98812.30;104688;1271;62030;-25
2022/10/01 09:18:46;;;;;;;5.80;1.80;;;;;;;16.01;79.06;98812.66;104703;1271;76595;-27
2022/10/01 09:21:36;;;;;;;1.60;1.50;;;;;;;15.86;79.06;98811.90;104787;1271;76863;-27
2022/10/01 09:24:09;;;;;;;1.50;1.40;;;;;;;15.60;79.86;98807.00;104668;1272;74415;-27
2022/10/01 09:26:35;;;;;;;1.70;1.20;;;;;;;15.35;81.25;98809.80;104628;1271;64764;-27
2022/10/01 09:29:02;;;;;;;2.50;1.30;;;;;;;15.67;80.38;98810.58;104623;1271;63093;-27
2022/10/01 09:31:35;;;;;;;2.20;1.60;;;;;;;15.72;80.15;98806.48;104528;1271;75546;-26
2022/10/01 09:34:10;;;;;;;3.60;1.90;;;;;;;15.73;80.25;98805.10;104636;1271;76099;-27
2022/10/01 09:36:56;;;;;;;2.20;1.50;;;;;;;15.48;81.25;98809.82;104744;1271;74055;-27
2022/10/01 09:39:29;;;;;;;2.40;1.30;;;;;;;15.29;82.40;98807.20;104708;1271;63302;-26
2022/10/01 09:41:57;;;;;;;3.60;1.40;;;;;;;15.62;81.33;98805.20;104759;1272;63043;-27
2022/10/01 09:44:26;;;;;;;3.70;1.80;;;;;;;15.83;80.87;98800.73;104765;1272;74160;-27
2022/10/01 09:46:56;;;;;;;2.30;1.70;;;;;;;15.63;81.61;98803.49;104802;1272;76881;-26
2022/10/01 09:49:38;;;;;;;3.80;1.90;;;;;;;15.44;82.67;98802.54;104821;1271;75469;-26
2022/10/01 09:52:34;;;;;;;2.40;1.30;;;;;;;15.26;83.34;98803.02;105019;1274;64417;-26
2022/10/01 09:55:02;;;;;;;6.40;1.80;;;;;;;15.65;81.85;98794.73;105071;1271;63006;-26
2022/10/01 09:57:37;;;;;;;3.10;2.10;;;;;;;15.75;82.06;98787.78;105071;1271;76586;-26
2022/10/01 10:00:14;;;;;;;3.10;1.90;;;;;;;15.58;82.06;98778.85;104855;1272;76987;-26
2022/10/01 10:02:43;;;;;;;8.10;1.50;;;;;;;15.38;83.33;98775.72;104867;1271;74016;-26
2022/10/01 10:05:25;;;;;;;3.80;1.90;;;;;;;15.66;82.53;98771.34;104685;1272;61988;-26
2022/10/01 10:08:02;;;;;;;2.40;1.60;;;;;;;15.94;81.04;98768.36;104876;1271;63095;-26
2022/10/01 10:10:38;;;;;;;3.30;2.10;;;;;;;15.83;81.44;98758.34;104622;1271;75005;-26
2022/10/01 10:13:09;;;;;;;3.00;1.50;;;;;;;15.73;82.22;98758.93;104658;1271;75302;-26
2022/10/01 10:15:40;;;;;;;2.70;1.30;;;;;;;15.64;82.98;98752.61;104756;1271;75354;-26
2022/10/01 10:18:10;;;;;;;2.60;1.60;;;;;;;16.16;81.98;98741.82;104861;1271;61975;-26
2022/10/01 10:20:39;;;;;;;2.40;1.40;;;;;;;16.12;80.43;98740.71;104869;1272;63008;-26
2022/10/01 10:23:08;;;;;;;4.60;2.00;;;;;;;15.84;81.72;98739.22;104909;1274;76464;-26
2022/10/01 10:25:35;;;;;;;2.90;1.50;;;;;;;15.76;82.00;98740.06;104687;1271;74796;-26
2022/10/01 10:28:03;;;;;;;2.40;1.10;;;;;;;15.68;82.75;98745.39;104740;1271;75341;-27
2022/10/01 10:30:30;;;;;;;2.10;1.60;;;;;;;16.06;81.89;98752.70;104791;1274;63234;-27
2022/10/01 10:33:04;;;;;;;3.70;1.70;;;;;;;16.24;80.82;98747.44;104880;1271;63094;-27
2022/10/01 10:35:31;;;;;;;2.90;2.00;;;;;;;16.06;81.31;98748.88;104747;1274;76497;-27
2022/10/01 10:37:58;;;;;;;5.00;1.70;;;;;;;15.90;81.82;98740.27;104845;1271;77140;-26
2022/10/01 10:40:28;;;;;;;3.10;1.60;;;;;;;15.74;82.67;98736.95;104773;1271;75500;-26
2022/10/01 10:42:56;;;;;;;3.20;1.40;;;;;;;16.10;82.26;98732.02;104874;1271;61944;-26
2022/10/01 10:45:32;;;;;;;2.70;1.60;;;;;;;16.42;80.01;98730.39;104777;1274;61109;-27
2022/10/01 10:47:59;;;;;;;4.70;1.80;;;;;;;16.40;80.80;98721.73;104672;1271;75486;-27
2022/10/01 10:50:28;;;;;;;3.90;1.90;;;;;;;16.15;81.36;98716.08;104758;1272;75811;-27
2022/10/01 10:52:56;;;;;;;3.60;1.30;;;;;;;15.96;82.10;98716.06;104593;1271;73584;-26
2022/10/01 10:55:29;;;;;;;3.10;1.60;;;;;;;16.35;82.12;98710.71;104856;1271;61673;-26
2022/10/01 10:58:15;;;;;;;3.00;1.70;;;;;;;16.86;80.66;98701.05;104881;1274;63089;-27
2022/10/01 11:00:47;;;;;;;2.30;1.90;;;;;;;16.75;80.04;98701.98;104947;1274;76557;-26
2022/10/01 11:03:15;;;;;;;3.80;2.20;;;;;;;16.66;79.95;98695.27;104817;1274;77016;-26
2022/10/01 11:05:43;;;;;;;3.00;2.10;;;;;;;16.47;81.36;98690.11;104701;1274;74038;-27
2022/10/01 11:08:19;;;;;;;4.20;2.50;;;;;;;16.78;80.11;98696.63;104803;1272;61798;-27
2022/10/01 11:10:55;;;;;;;3.90;2.60;;;;;;;16.99;78.76;98695.49;104888;1272;61172;-27
2022/10/01 11:13:48;;;;;;;4.50;2.40;;;;;;;16.70;79.27;98696.81;104999;1272;76554;-27
2022/10/01 11:16:28;;;;;;;3.80;3.10;;;;;;;16.84;80.08;98694.59;104797;1271;75822;-27
2022/10/01 11:19:04;;;;;;;2.70;2.00;;;;;;;16.89;80.02;98696.67;104791;1271;75670;-27
2022/10/01 11:21:56;;;;;;;6.50;2.20;;;;;;;17.36;79.43;98697.32;104734;1274;62172;-27
2022/10/01 11:24:46;;;;;;;4.00;2.40;;;;;;;17.76;77.35;98695.38;104795;1274;62931;-27
2022/10/01 11:27:36;;;;;;;2.80;1.90;;;;;;;17.65;76.60;98693.05;105027;1271;75283;-27
2022/10/01 11:30:08;;;;;;;3.30;2.10;;;;;;;17.45;77.39;98691.68;104460;1271;75928;-27
2022/10/01 11:32:50;;;;;;;2.50;1.70;;;;;;;17.23;78.10;98690.59;104794;1271;74317;-27
2022/10/01 11:35:22;;;;;;;2.40;1.90;;;;;;;17.58;76.88;98694.59;104718;1274;61629;-28
2022/10/01 11:37:59;;;;;;;3.30;1.60;;;;;;;17.81;76.18;98690.13;104623;1272;63056;-27
2022/10/01 11:40:32;;;;;;;3.40;1.50;;;;;;;17.71;75.58;98689.95;104630;1274;76050;-27
2022/10/01 11:43:01;;;;;;;6.60;1.90;;;;;;;17.44;76.02;98683.77;104701;1271;76967;-27
2022/10/01 11:45:37;;;;;;;5.00;1.80;;;;;;;17.30;77.43;98680.63;104669;1272;75445;-27
2022/10/01 11:48:06;;;;;;;3.60;1.00;;;;;;;17.26;77.59;98676.48;104743;1271;64419;-27